createdAt,value
2022-12-08T00:02:12.261Z,71.80
2022-12-08T00:04:25.539Z,71.80
2022-12-08T00:06:57.807Z,71.87
2022-12-08T00:09:32.035Z,71.93
2022-12-08T00:11:50.132Z,72.19
2022-12-08T00:14:05.163Z,71.90
2022-12-08T00:16:18.774Z,72.12
2022-12-08T00:18:33.069Z,72.10
2022-12-08T00:20:46.753Z,72.28
2022-12-08T00:22:59.888Z,72.20
2022-12-08T00:25:13.602Z,72.25
2022-12-08T00:27:28.697Z,72.68
2022-12-08T00:29:41.886Z,72.73
2022-12-08T00:31:56.304Z,72.68
2022-12-08T00:34:10.543Z,72.52
2022-12-08T00:36:24.761Z,72.51
2022-12-08T00:38:42.185Z,72.48
2022-12-08T00:40:56.057Z,72.53
2022-12-08T00:43:09.815Z,72.06
2022-12-08T00:45:24.045Z,72.50
2022-12-08T00:47:37.682Z,72.30
2022-12-08T00:49:52.092Z,72.27
2022-12-08T00:52:05.907Z,72.33
2022-12-08T00:54:19.954Z,72.52
2022-12-08T00:56:34.311Z,72.64
2022-12-08T00:58:48.730Z,72.81
2022-12-08T01:01:03.881Z,72.70
2022-12-08T01:03:18.106Z,72.70
2022-12-08T01:05:32.109Z,72.82
2022-12-08T01:07:45.818Z,72.85
2022-12-08T01:10:00.562Z,72.72
2022-12-08T01:12:14.304Z,72.52
2022-12-08T01:14:28.172Z,72.75
2022-12-08T01:16:42.878Z,72.41
2022-12-08T01:18:57.287Z,72.53
2022-12-08T01:21:12.043Z,72.62
2022-12-08T01:23:25.357Z,72.21
2022-12-08T01:25:39.997Z,71.77
2022-12-08T01:27:55.454Z,71.78
2022-12-08T01:30:09.773Z,72.17
2022-12-08T01:32:22.621Z,71.89
2022-12-08T01:34:36.597Z,71.78
2022-12-08T01:36:49.724Z,72.12
2022-12-08T01:39:03.999Z,71.90
2022-12-08T01:41:21.336Z,71.81
2022-12-08T01:43:58.865Z,72.02
2022-12-08T01:46:12.779Z,71.98
2022-12-08T01:48:29.404Z,71.91
2022-12-08T01:50:43.201Z,71.78
2022-12-08T01:52:59.710Z,72.13
2022-12-08T01:55:18.583Z,72.18
2022-12-08T01:57:37.903Z,72.17
2022-12-08T01:59:56.322Z,71.94
2022-12-08T02:02:11.333Z,72.10
2022-12-08T02:04:24.732Z,71.91
2022-12-08T02:06:43.059Z,71.95
2022-12-08T02:08:57.843Z,71.94
2022-12-08T02:11:12.324Z,72.22
2022-12-08T02:13:27.793Z,72.01
2022-12-08T02:15:49.372Z,72.16
2022-12-08T02:18:15.381Z,72.13
2022-12-08T02:20:49.259Z,72.11
2022-12-08T02:23:11.959Z,72.28
2022-12-08T02:25:31.231Z,72.13
2022-12-08T02:28:01.796Z,72.02
2022-12-08T02:30:28.229Z,72.20
2022-12-08T02:33:25.424Z,72.13
2022-12-08T02:35:42.220Z,72.44
2022-12-08T02:38:05.726Z,72.11
2022-12-08T02:40:26.013Z,71.71
2022-12-08T02:42:45.424Z,71.77
2022-12-08T02:45:04.375Z,71.65
2022-12-08T02:47:21.095Z,71.68
2022-12-08T02:49:38.435Z,71.94
2022-12-08T02:51:52.504Z,72.20
2022-12-08T02:54:08.538Z,72.25
2022-12-08T02:56:35.600Z,72.12
2022-12-08T02:59:13.745Z,72.27
2022-12-08T03:01:49.654Z,72.03
2022-12-08T03:04:12.144Z,72.53
2022-12-08T03:06:33.634Z,72.81
2022-12-08T03:08:55.656Z,72.78
2022-12-08T03:11:14.903Z,72.75
2022-12-08T03:13:35.154Z,72.56
2022-12-08T03:15:51.933Z,72.79
2022-12-08T03:18:07.358Z,72.87
2022-12-08T03:20:24.472Z,72.88
2022-12-08T03:22:40.656Z,73.02
2022-12-08T03:24:54.824Z,73.21
2022-12-08T03:27:10.768Z,73.21
2022-12-08T03:29:24.029Z,73.31
2022-12-08T03:31:42.175Z,73.61
2022-12-08T03:33:59.788Z,73.75
2022-12-08T03:36:14.927Z,73.80
2022-12-08T03:38:27.935Z,73.91
2022-12-08T03:40:42.069Z,73.80
2022-12-08T03:42:56.364Z,73.94
2022-12-08T03:45:10.591Z,73.77
2022-12-08T03:47:23.575Z,73.92
2022-12-08T03:49:37.381Z,74.02
2022-12-08T03:51:51.337Z,73.93
2022-12-08T03:54:04.705Z,73.95
2022-12-08T03:56:26.821Z,74.04
2022-12-08T03:58:40.199Z,74.26
2022-12-08T04:00:54.039Z,74.27
2022-12-08T04:03:07.623Z,74.35
2022-12-08T04:05:21.526Z,74.50
2022-12-08T04:07:35.021Z,74.58
2022-12-08T04:09:47.931Z,74.75
2022-12-08T04:12:02.866Z,74.49
2022-12-08T04:14:15.941Z,74.40
2022-12-08T04:16:29.856Z,74.48
2022-12-08T04:18:43.766Z,74.51
2022-12-08T04:20:58.256Z,74.55
2022-12-08T04:23:12.437Z,74.42
2022-12-08T04:25:26.372Z,74.43
2022-12-08T04:27:41.002Z,74.61
2022-12-08T04:29:53.895Z,74.62
2022-12-08T04:32:07.144Z,74.70
2022-12-08T04:34:20.917Z,74.47
2022-12-08T04:36:33.990Z,74.65
2022-12-08T04:38:47.958Z,74.81
2022-12-08T04:41:01.853Z,74.50
2022-12-08T04:43:15.314Z,74.63
2022-12-08T04:45:28.565Z,74.61
2022-12-08T04:47:42.481Z,74.35
2022-12-08T04:49:56.271Z,74.23
2022-12-08T04:52:09.420Z,74.32
2022-12-08T04:54:22.516Z,74.34
2022-12-08T04:56:42.627Z,74.30
2022-12-08T04:58:56.162Z,74.47
2022-12-08T05:01:09.841Z,74.27
2022-12-08T05:03:28.577Z,74.43
2022-12-08T05:05:43.045Z,74.25
2022-12-08T05:07:56.052Z,74.41
2022-12-08T05:10:11.277Z,74.37
2022-12-08T05:12:24.365Z,74.58
2022-12-08T05:14:38.499Z,74.53
2022-12-08T05:16:52.188Z,74.53
2022-12-08T05:19:09.212Z,74.47
2022-12-08T05:21:26.313Z,74.64
2022-12-08T05:23:43.697Z,74.55
2022-12-08T05:26:00.732Z,74.49
2022-12-08T05:28:40.138Z,74.52
2022-12-08T05:30:52.784Z,74.64
2022-12-08T05:33:06.827Z,74.56
2022-12-08T05:35:20.672Z,74.59
2022-12-08T05:37:34.580Z,74.43
2022-12-08T05:39:51.620Z,74.28
2022-12-08T05:42:05.779Z,74.40
2022-12-08T05:44:19.532Z,74.23
2022-12-08T05:46:32.447Z,74.16
2022-12-08T05:48:45.506Z,74.29
2022-12-08T05:50:58.925Z,74.50
2022-12-08T05:53:12.636Z,74.27
2022-12-08T05:55:26.668Z,74.21
2022-12-08T05:57:40.372Z,74.14
2022-12-08T05:59:54.446Z,74.24
2022-12-08T06:02:09.856Z,74.07
2022-12-08T06:04:23.118Z,73.95
2022-12-08T06:06:37.828Z,73.90
2022-12-08T06:08:51.559Z,73.91
2022-12-08T06:11:04.743Z,73.82
2022-12-08T06:13:18.449Z,73.79
2022-12-08T06:15:31.976Z,73.76
2022-12-08T06:17:45.773Z,73.64
2022-12-08T06:20:00.117Z,73.63
2022-12-08T06:22:14.142Z,73.49
2022-12-08T06:24:28.732Z,73.41
2022-12-08T06:26:43.449Z,73.48
2022-12-08T06:28:57.305Z,73.55
2022-12-08T06:31:13.496Z,73.43
2022-12-08T06:33:28.964Z,73.47
2022-12-08T06:35:42.899Z,73.53
2022-12-08T06:37:56.443Z,73.49
2022-12-08T06:40:11.725Z,73.39
2022-12-08T06:42:43.423Z,73.40
2022-12-08T06:44:57.558Z,73.44
2022-12-08T06:47:11.678Z,73.44
2022-12-08T06:49:24.719Z,73.37
2022-12-08T06:51:38.427Z,73.23
2022-12-08T06:53:52.252Z,73.21
2022-12-08T06:56:05.424Z,73.14
2022-12-08T06:58:19.701Z,72.94
2022-12-08T07:00:35.401Z,72.96
2022-12-08T07:02:48.899Z,73.04
2022-12-08T07:05:03.170Z,72.77
2022-12-08T07:07:16.851Z,72.82
2022-12-08T07:09:29.933Z,72.76
2022-12-08T07:11:44.051Z,72.77
2022-12-08T07:13:58.682Z,72.84
2022-12-08T07:16:14.707Z,72.74
2022-12-08T07:18:27.733Z,72.55
2022-12-08T07:20:40.987Z,72.88
2022-12-08T07:22:57.964Z,72.75
2022-12-08T07:25:12.598Z,72.93
2022-12-08T07:27:25.436Z,72.90
2022-12-08T07:29:39.407Z,72.70
2022-12-08T07:31:52.137Z,72.49
2022-12-08T07:34:05.854Z,72.59
2022-12-08T07:36:20.060Z,72.51
2022-12-08T07:38:34.238Z,72.54
2022-12-08T07:40:49.010Z,72.55
2022-12-08T07:43:02.865Z,72.53
2022-12-08T07:45:16.633Z,72.64
2022-12-08T07:47:30.292Z,72.51
2022-12-08T07:49:43.213Z,72.52
2022-12-08T07:51:59.250Z,72.46
2022-12-08T07:54:14.645Z,72.51
2022-12-08T07:56:27.821Z,72.50
2022-12-08T07:58:41.271Z,72.43
2022-12-08T08:00:54.407Z,72.64
2022-12-08T08:03:07.659Z,72.45
2022-12-08T08:05:21.741Z,72.53
2022-12-08T08:07:36.363Z,72.52
2022-12-08T08:09:49.694Z,72.39
2022-12-08T08:12:29.688Z,72.52
2022-12-08T08:14:37.098Z,72.35
2022-12-08T08:16:51.622Z,72.15
2022-12-08T08:19:05.396Z,72.31
2022-12-08T08:23:52.651Z,72.27
2022-12-08T08:26:08.247Z,72.31
2022-12-08T08:28:21.476Z,72.28
2022-12-08T08:30:34.214Z,72.26
2022-12-08T08:32:47.558Z,72.34
2022-12-08T08:35:01.663Z,72.41
2022-12-08T08:37:15.196Z,72.27
2022-12-08T08:39:28.626Z,72.31
2022-12-08T08:41:42.546Z,72.09
2022-12-08T08:43:57.479Z,72.06
2022-12-08T08:46:12.007Z,72.04
2022-12-08T08:48:24.801Z,72.15
2022-12-08T08:50:37.996Z,72.12
2022-12-08T08:52:52.243Z,72.05
2022-12-08T08:55:05.418Z,72.15
2022-12-08T08:57:25.072Z,72.13
2022-12-08T08:59:39.803Z,72.14
2022-12-08T09:01:52.876Z,71.78
2022-12-08T09:04:05.961Z,72.04
2022-12-08T09:06:20.269Z,72.07
2022-12-08T09:08:33.394Z,72.13
2022-12-08T09:10:47.581Z,71.96
2022-12-08T09:13:00.433Z,72.11
2022-12-08T09:15:14.336Z,72.01
2022-12-08T09:17:27.179Z,72.00
2022-12-08T09:19:41.068Z,72.10
2022-12-08T09:21:54.365Z,71.99
2022-12-08T09:24:09.227Z,71.89
2022-12-08T09:26:23.433Z,71.80
2022-12-08T09:28:38.439Z,71.75
2022-12-08T09:30:54.260Z,71.80
2022-12-08T09:33:07.929Z,71.79
2022-12-08T09:35:21.799Z,71.88
2022-12-08T09:37:35.226Z,71.90
2022-12-08T09:39:48.696Z,71.88
2022-12-08T09:42:05.018Z,72.03
2022-12-08T09:44:41.546Z,72.18
2022-12-08T09:46:58.719Z,72.25
2022-12-08T09:49:19.521Z,72.41
2022-12-08T09:51:39.659Z,72.54
2022-12-08T09:53:56.632Z,72.67
2022-12-08T09:56:16.255Z,72.81
2022-12-08T09:58:38.590Z,72.73
2022-12-08T10:00:52.739Z,72.78
2022-12-08T10:03:08.075Z,72.97
2022-12-08T10:05:25.082Z,72.97
2022-12-08T10:07:49.451Z,72.95
2022-12-08T10:10:09.093Z,73.10
2022-12-08T10:12:31.276Z,73.06
2022-12-08T10:14:49.146Z,73.48
2022-12-08T10:17:09.778Z,73.61
2022-12-08T10:19:25.925Z,73.77
2022-12-08T10:21:42.699Z,74.16
2022-12-08T10:24:02.603Z,73.94
2022-12-08T10:26:19.005Z,74.24
2022-12-08T10:28:32.784Z,74.27
2022-12-08T10:30:46.650Z,74.41
2022-12-08T10:33:00.462Z,74.58
2022-12-08T10:35:15.696Z,74.64
2022-12-08T10:37:28.802Z,74.95
2022-12-08T10:39:44.864Z,75.22
2022-12-08T10:42:03.299Z,75.18
2022-12-08T10:44:19.887Z,75.52
2022-12-08T10:46:35.928Z,75.94
2022-12-08T10:48:57.602Z,76.30
2022-12-08T10:51:25.690Z,76.51
2022-12-08T10:53:48.665Z,77.00
2022-12-08T10:56:18.270Z,77.29
2022-12-08T10:58:36.812Z,77.47
2022-12-08T11:00:50.679Z,78.11
2022-12-08T11:03:25.314Z,78.23
2022-12-08T11:05:40.045Z,78.40
2022-12-08T11:07:57.783Z,79.01
2022-12-08T11:10:21.570Z,79.29
2022-12-08T11:12:37.338Z,79.53
2022-12-08T11:15:04.161Z,79.19
2022-12-08T11:17:19.871Z,78.75
2022-12-08T11:19:33.765Z,78.59
2022-12-08T11:21:47.998Z,78.47
2022-12-08T11:24:02.241Z,78.41
2022-12-08T11:26:21.551Z,78.48
2022-12-08T11:28:34.554Z,78.68
2022-12-08T11:30:51.802Z,78.93
2022-12-08T11:33:09.881Z,79.29
2022-12-08T11:35:30.343Z,79.82
2022-12-08T11:37:45.858Z,79.84
2022-12-08T11:40:02.977Z,80.34
2022-12-08T11:42:21.815Z,80.01
2022-12-08T11:44:44.564Z,80.20
2022-12-08T11:47:04.057Z,80.38
2022-12-08T11:49:19.199Z,79.99
2022-12-08T11:51:37.650Z,79.92
2022-12-08T11:54:09.367Z,80.16
2022-12-08T11:56:32.649Z,80.16
2022-12-08T11:58:50.781Z,80.00
2022-12-08T12:01:05.023Z,80.03
2022-12-08T12:03:30.395Z,80.02
2022-12-08T12:06:12.988Z,80.01
2022-12-08T12:08:45.843Z,79.84
2022-12-08T12:11:08.797Z,80.08
2022-12-08T12:13:41.560Z,80.16
2022-12-08T12:16:21.875Z,80.65
2022-12-08T12:18:41.924Z,80.39
2022-12-08T12:21:00.103Z,80.31
2022-12-08T12:23:22.950Z,80.62
2022-12-08T12:25:38.089Z,80.89
2022-12-08T12:27:57.269Z,81.13
2022-12-08T12:30:21.824Z,80.79
2022-12-08T12:32:50.341Z,80.85
2022-12-08T12:35:05.962Z,81.08
2022-12-08T12:37:22.034Z,81.13
2022-12-08T12:39:38.574Z,81.11
2022-12-08T12:41:55.778Z,81.29
2022-12-08T12:44:43.428Z,81.13
2022-12-08T12:47:04.313Z,80.99
2022-12-08T12:49:51.353Z,81.07
2022-12-08T12:52:05.313Z,81.37
2022-12-08T12:54:29.341Z,81.60
2022-12-08T12:56:59.356Z,81.59
2022-12-08T12:59:41.571Z,81.40
2022-12-08T13:02:00.398Z,81.62
2022-12-08T13:04:14.532Z,81.96
2022-12-08T13:06:40.420Z,82.19
2022-12-08T13:08:58.793Z,82.36
2022-12-08T13:11:14.289Z,82.04
2022-12-08T13:13:28.070Z,82.03
2022-12-08T13:15:52.937Z,82.33
2022-12-08T13:18:07.400Z,82.17
2022-12-08T13:20:25.937Z,81.89
2022-12-08T13:23:15.525Z,81.95
2022-12-08T13:25:57.088Z,82.26
2022-12-08T13:28:21.624Z,82.14
2022-12-08T13:30:52.435Z,82.22
2022-12-08T13:33:17.666Z,82.19
2022-12-08T13:35:32.822Z,82.69
2022-12-08T13:37:55.378Z,82.67
2022-12-08T13:40:13.763Z,82.94
2022-12-08T13:42:41.579Z,83.18
2022-12-08T13:47:54.299Z,83.07
2022-12-08T13:51:23.723Z,82.88
2022-12-08T13:58:19.202Z,82.93
2022-12-08T14:00:32.274Z,83.25
2022-12-08T14:02:49.385Z,82.94
2022-12-08T14:05:34.731Z,82.85
2022-12-08T14:07:38.845Z,82.95
2022-12-08T14:09:52.422Z,83.12
2022-12-08T14:12:09.058Z,83.23
2022-12-08T14:14:53.921Z,83.31
2022-12-08T14:17:03.653Z,83.37
2022-12-08T14:19:24.796Z,83.38
2022-12-08T14:21:38.151Z,83.24
2022-12-08T14:23:52.205Z,83.14
2022-12-08T14:26:06.724Z,83.26
2022-12-08T14:28:19.876Z,83.71
2022-12-08T14:30:35.435Z,83.84
2022-12-08T14:32:51.505Z,83.58
2022-12-08T14:35:18.159Z,83.47
2022-12-08T14:37:34.568Z,83.48
2022-12-08T14:39:47.795Z,83.98
2022-12-08T14:42:08.825Z,83.93
2022-12-08T14:44:28.111Z,83.68
2022-12-08T14:46:41.383Z,83.67
2022-12-08T14:48:57.759Z,83.77
2022-12-08T14:51:17.694Z,83.57
2022-12-08T14:53:34.982Z,83.81
2022-12-08T14:55:53.117Z,83.81
2022-12-08T14:58:07.524Z,83.70
2022-12-08T15:00:28.053Z,83.73
2022-12-08T15:02:48.615Z,83.83
2022-12-08T15:05:08.318Z,83.85
2022-12-08T15:07:25.683Z,83.97
2022-12-08T15:09:42.016Z,83.83
2022-12-08T15:12:07.028Z,83.97
2022-12-08T15:14:38.070Z,83.71
2022-12-08T15:16:51.976Z,83.61
2022-12-08T15:19:19.505Z,83.47
2022-12-08T15:21:36.013Z,83.57
2022-12-08T15:23:53.088Z,83.68
2022-12-08T15:26:07.595Z,83.54
2022-12-08T15:28:29.281Z,83.68
2022-12-08T15:30:44.509Z,83.91
2022-12-08T15:32:58.006Z,83.92
2022-12-08T15:35:15.677Z,83.79
2022-12-08T15:37:29.845Z,83.74
2022-12-08T15:39:44.250Z,83.58
2022-12-08T15:41:57.210Z,83.58
2022-12-08T15:44:11.111Z,83.54
2022-12-08T15:46:24.539Z,83.67
2022-12-08T15:48:38.320Z,83.58
2022-12-08T15:50:51.644Z,83.45
2022-12-08T15:53:04.827Z,83.46
2022-12-08T15:55:21.920Z,83.46
2022-12-08T15:58:17.519Z,83.36
2022-12-08T16:00:51.651Z,83.32
2022-12-08T16:03:27.670Z,83.24
2022-12-08T16:05:46.842Z,83.42
2022-12-08T16:08:30.140Z,83.53
2022-12-08T16:11:24.268Z,83.63
2022-12-08T16:13:56.736Z,83.40
2022-12-08T16:16:21.871Z,83.45
2022-12-08T16:18:39.168Z,83.57
2022-12-08T16:23:42.453Z,83.54
2022-12-08T16:31:13.365Z,83.62
2022-12-08T16:33:27.904Z,83.59
2022-12-08T16:35:41.811Z,83.60
2022-12-08T16:37:55.662Z,83.49
2022-12-08T16:40:09.944Z,83.51
2022-12-08T16:42:44.613Z,83.47
2022-12-08T16:44:58.611Z,83.31
2022-12-08T16:47:15.098Z,83.25
2022-12-08T16:49:29.194Z,83.56
2022-12-08T16:51:42.132Z,83.24
2022-12-08T16:53:55.967Z,83.34
2022-12-08T16:56:10.308Z,83.38
2022-12-08T16:58:24.505Z,83.62
2022-12-08T17:00:38.928Z,83.57
2022-12-08T17:02:52.813Z,83.33
2022-12-08T17:05:07.616Z,83.24
2022-12-08T17:07:21.791Z,83.22
2022-12-08T17:09:36.417Z,83.27
2022-12-08T17:11:50.675Z,83.23
2022-12-08T17:14:04.368Z,83.39
2022-12-08T17:16:22.091Z,83.34
2022-12-08T17:18:35.858Z,83.23
2022-12-08T17:20:49.457Z,83.15
2022-12-08T17:23:02.958Z,83.28
2022-12-08T17:25:17.106Z,83.23
2022-12-08T17:27:30.192Z,83.07
2022-12-08T17:29:43.284Z,83.14
2022-12-08T17:31:58.815Z,83.19
2022-12-08T17:34:13.549Z,83.34
2022-12-08T17:36:27.117Z,83.41
2022-12-08T17:38:40.234Z,83.24
2022-12-08T17:40:58.462Z,83.39
2022-12-08T17:43:12.835Z,83.75
2022-12-08T17:45:26.527Z,84.07
2022-12-08T17:47:40.512Z,84.02
2022-12-08T17:49:54.080Z,84.03
2022-12-08T17:52:09.612Z,83.81
2022-12-08T17:54:23.166Z,83.86
2022-12-08T17:56:36.676Z,84.04
2022-12-08T17:58:54.269Z,84.16
2022-12-08T18:01:13.505Z,84.24
2022-12-08T18:03:28.288Z,84.10
2022-12-08T18:05:41.427Z,84.22
2022-12-08T18:07:55.429Z,83.98
2022-12-08T18:10:09.667Z,84.17
2022-12-08T18:12:23.962Z,83.93
2022-12-08T18:14:37.994Z,83.93
2022-12-08T18:16:52.541Z,84.11
2022-12-08T18:19:05.509Z,84.20
2022-12-08T18:21:23.603Z,84.21
2022-12-08T18:23:37.189Z,84.31
2022-12-08T18:25:50.683Z,84.58
2022-12-08T18:28:04.523Z,84.56
2022-12-08T18:30:21.527Z,84.58
2022-12-08T18:32:35.524Z,84.46
2022-12-08T18:34:49.585Z,84.56
2022-12-08T18:37:04.012Z,84.70
2022-12-08T18:39:28.183Z,84.88
2022-12-08T18:41:41.698Z,84.85
2022-12-08T18:43:56.200Z,84.57
2022-12-08T18:46:11.188Z,84.69
2022-12-08T18:48:24.573Z,84.72
2022-12-08T18:50:38.485Z,84.68
2022-12-08T18:52:52.475Z,84.78
2022-12-08T18:55:07.011Z,84.60
2022-12-08T18:57:20.740Z,84.75
2022-12-08T18:59:34.417Z,84.87
2022-12-08T19:01:48.296Z,84.92
2022-12-08T19:04:27.380Z,84.86
2022-12-08T19:06:40.065Z,84.90
2022-12-08T19:08:53.818Z,84.83
2022-12-08T19:11:07.716Z,84.75
2022-12-08T19:13:21.463Z,84.54
2022-12-08T19:15:35.486Z,84.52
2022-12-08T19:17:49.159Z,84.45
2022-12-08T19:20:02.267Z,84.43
2022-12-08T19:22:15.591Z,84.31
2022-12-08T19:24:28.901Z,84.37
2022-12-08T19:26:43.082Z,84.16
2022-12-08T19:28:57.224Z,84.30
2022-12-08T19:31:15.196Z,84.20
2022-12-08T19:33:29.434Z,83.90
2022-12-08T19:35:47.515Z,83.95
2022-12-08T19:38:06.042Z,83.94
2022-12-08T19:40:36.704Z,83.93
2022-12-08T19:43:07.344Z,83.87
2022-12-08T19:45:24.056Z,83.95
2022-12-08T19:47:37.355Z,84.04
2022-12-08T19:49:51.452Z,83.98
2022-12-08T19:52:05.554Z,84.07
2022-12-08T19:54:18.443Z,84.18
2022-12-08T19:56:32.193Z,84.16
2022-12-08T19:58:46.866Z,84.26
2022-12-08T20:01:00.690Z,84.48
2022-12-08T20:03:17.992Z,84.47
2022-12-08T20:05:32.152Z,84.64
2022-12-08T20:07:46.028Z,84.73
2022-12-08T20:09:59.637Z,84.64
2022-12-08T20:12:13.888Z,84.70
2022-12-08T20:14:27.859Z,84.56
2022-12-08T20:16:42.122Z,84.63
2022-12-08T20:18:55.637Z,84.54
2022-12-08T20:21:09.178Z,84.59
2022-12-08T20:23:23.236Z,84.71
2022-12-08T20:25:36.856Z,84.78
2022-12-08T20:27:49.946Z,84.90
2022-12-08T20:30:02.939Z,84.59
2022-12-08T20:32:16.000Z,84.39
2022-12-08T20:34:29.216Z,84.41
2022-12-08T20:36:42.466Z,84.44
2022-12-08T20:38:57.194Z,84.38
2022-12-08T20:41:14.207Z,84.25
2022-12-08T20:43:27.649Z,84.40
2022-12-08T20:45:41.489Z,84.39
2022-12-08T20:47:54.875Z,84.35
2022-12-08T20:50:09.851Z,84.37
2022-12-08T20:52:24.639Z,84.15
2022-12-08T20:54:38.345Z,84.34
2022-12-08T20:56:51.706Z,84.09
2022-12-08T20:59:05.819Z,83.97
2022-12-08T21:01:23.451Z,84.09
2022-12-08T21:03:36.975Z,84.14
2022-12-08T21:05:55.904Z,84.11
2022-12-08T21:08:09.791Z,84.10
2022-12-08T21:10:24.073Z,84.02
2022-12-08T21:12:38.376Z,84.17
2022-12-08T21:14:52.810Z,84.30
2022-12-08T21:17:06.747Z,84.39
2022-12-08T21:19:21.386Z,84.49
2022-12-08T21:21:35.529Z,84.48
2022-12-08T21:23:48.934Z,84.42
2022-12-08T21:26:03.207Z,84.44
2022-12-08T21:28:17.821Z,84.50
2022-12-08T21:30:31.896Z,84.43
2022-12-08T21:32:46.339Z,84.33
2022-12-08T21:34:59.610Z,84.23
2022-12-08T21:37:13.003Z,84.17
2022-12-08T21:39:26.453Z,84.28
2022-12-08T21:41:57.688Z,84.28
2022-12-08T21:44:14.362Z,84.21
2022-12-08T21:46:27.771Z,84.07
2022-12-08T21:48:42.144Z,84.09
2022-12-08T21:50:56.208Z,84.11
2022-12-08T21:53:10.147Z,84.13
2022-12-08T21:55:24.759Z,84.06
2022-12-08T21:57:38.695Z,84.00
2022-12-08T21:59:52.394Z,84.07
2022-12-08T22:02:07.299Z,83.86
2022-12-08T22:04:25.838Z,83.99
2022-12-08T22:06:39.253Z,83.99
2022-12-08T22:08:52.678Z,83.91
2022-12-08T22:11:06.395Z,83.96
2022-12-08T22:13:20.817Z,83.73
2022-12-08T22:15:35.741Z,83.75
2022-12-08T22:17:49.548Z,83.73
2022-12-08T22:20:05.407Z,83.54
2022-12-08T22:22:19.653Z,83.55
2022-12-08T22:24:36.685Z,83.62
2022-12-08T22:26:51.022Z,83.53
2022-12-08T22:29:04.101Z,83.83
2022-12-08T22:31:19.252Z,84.16
2022-12-08T22:33:34.109Z,84.30
2022-12-08T22:35:47.462Z,84.54
2022-12-08T22:38:02.043Z,84.57
2022-12-08T22:40:16.640Z,84.76
2022-12-08T22:42:31.192Z,84.83
2022-12-08T22:44:44.747Z,84.68
2022-12-08T22:46:58.731Z,84.50
2022-12-08T22:49:12.088Z,84.38
2022-12-08T22:51:25.330Z,84.01
2022-12-08T22:53:40.177Z,84.00
2022-12-08T22:55:53.264Z,84.03
2022-12-08T22:58:07.088Z,84.24
2022-12-08T23:00:21.731Z,84.21
2022-12-08T23:02:35.181Z,84.16
2022-12-08T23:04:51.062Z,83.84
2022-12-08T23:07:07.562Z,83.87
2022-12-08T23:09:21.431Z,83.76
2022-12-08T23:11:37.094Z,83.62
2022-12-08T23:13:50.450Z,83.49
2022-12-08T23:16:04.120Z,83.18
2022-12-08T23:18:21.785Z,83.01
2022-12-08T23:20:35.078Z,83.23
2022-12-08T23:22:48.269Z,83.24
2022-12-08T23:25:02.516Z,83.34
2022-12-08T23:27:16.863Z,83.28
2022-12-08T23:29:30.700Z,83.29
2022-12-08T23:31:44.713Z,83.33
2022-12-08T23:33:58.987Z,83.36
2022-12-08T23:36:13.819Z,83.38
2022-12-08T23:38:27.347Z,83.37
2022-12-08T23:40:42.445Z,83.29
2022-12-08T23:42:56.672Z,83.47
2022-12-08T23:45:11.635Z,83.30
2022-12-08T23:47:25.704Z,83.35
2022-12-08T23:49:40.746Z,83.26
2022-12-08T23:51:54.874Z,83.16
2022-12-08T23:54:11.245Z,83.22
2022-12-08T23:56:29.985Z,83.36
2022-12-08T23:58:45.083Z,83.29
